METAR Data
IDs: Format: Raw Decoded Include TAF

Data at: 0951 UTC 26 Jan 2020

KCWA 260935Z AUTO 30010G15KT 10SM OVC009 00/M02 A2985 RMK AO2
KCWA 260915Z AUTO 29013G17KT 10SM OVC009 00/M02 A2985 RMK AO2
KCWA 260855Z AUTO 29011G17KT 10SM OVC009 00/M02 A2985 RMK AO2
KCWA 260835Z AUTO 29009KT 10SM OVC009 00/M01 A2985 RMK AO2
KCWA 260815Z AUTO 30009KT 10SM OVC009 00/M02 A2985 RMK AO2
KCWA 260755Z AUTO 30010G17KT 10SM OVC009 00/M01 A2985 RMK AO2
KCWA 260735Z AUTO 29008G14KT 10SM OVC009 00/M01 A2985 RMK AO2
KCWA 260715Z AUTO 28010KT 10SM OVC009 00/M01 A2985 RMK AO2
KCWA 260655Z AUTO 30007KT 10SM OVC011 00/M01 A2984 RMK AO2
KCWA 260635Z AUTO 30008KT 10SM OVC011 00/M01 A2985 RMK AO2
KCWA 260615Z AUTO 31008KT 10SM OVC011 00/M01 A2984 RMK AO2
KCWA 260555Z AUTO 30010G14KT 10SM OVC011 00/M01 A2985 RMK AO2
KCWA 260535Z AUTO 30009KT 10SM OVC011 00/M01 A2984 RMK AO2
KCWA 260515Z AUTO 30010KT 10SM OVC011 00/M01 A2984 RMK AO2
KCWA 260455Z AUTO 30008KT 10SM OVC013 00/M01 A2984 RMK AO2
KCWA 260435Z AUTO 30007KT 10SM OVC013 00/M01 A2984 RMK AO2
KCWA 260415Z AUTO 30009KT 10SM OVC011 00/M01 A2984 RMK AO2
KCWA 260355Z AUTO 30008KT 10SM BKN011 OVC017 00/M01 A2984 RMK AO2
KCWA 260345Z 30006KT 10SM BKN015 OVC040 00/M01 A2984
KCWA 260247Z 30006KT 10SM OVC013 00/M01 A2984
KCWA 260153Z 31007KT 10SM OVC011 00/M01 A2984
KCWA 260052Z 31007KT 10SM BKN008 OVC021 01/M01 A2984
KCWA 252347Z 30006KT 10SM SCT013 OVC024 01/M01 A2983
KCWA 252247Z 29006KT 10SM OVC016 01/00 A2982
KCWA 252152Z 32006KT 10SM OVC014 01/M01 A2980
KCWA 252055Z 32007KT 10SM BKN014 OVC022 01/M01 A2979
KCWA 251955Z 32006KT 10SM OVC014 01/M01 A2979
KCWA 251856Z 33006KT 10SM OVC014 01/M01 A2980
KCWA 251747Z 33009KT 10SM OVC012 01/M01 A2980
KCWA 251647Z 33006KT 10SM BKN008 OVC012 00/M01 A2981
KCWA 251548Z 34008KT 10SM OVC008 00/M01 A2980
KCWA 251455Z 34007KT 5SM -SN SCT004 BKN006 OVC014 M01/M01 A2980
KCWA 251355Z 34005KT 2SM -SN SCT008 BKN013 OVC022 M01/M02 A2980
KCWA 251255Z 01006KT 1 1/2SM -SN OVC005 M01/M02 A2979
KCWA 251150Z 32006KT 1 1/2SM -SN OVC005 M01/M01 A2977
KCWA 251135Z AUTO 33005KT 2 1/2SM -SN BKN005 OVC012 00/M01 A2977 RMK AO2
KCWA 251115Z AUTO 33007KT 2 1/2SM -SN OVC005 00/00 A2977 RMK AO2
KCWA 251055Z AUTO 33006KT 2SM -SN OVC005 00/00 A2977 RMK AO2
KCWA 251035Z AUTO 33005KT 3SM -SN OVC005 00/00 A2977 RMK AO2
KCWA 251015Z AUTO 33005KT 4SM -SN OVC007 00/00 A2977 RMK AO2
KCWA 250955Z AUTO 34006KT 4SM -SN BKN005 OVC009 00/00 A2977 RMK AO2
KCWA 250935Z AUTO 33005KT 5SM -SN OVC007 00/00 A2978 RMK AO2
KCWA 250915Z AUTO 33005KT 7SM OVC007 00/00 A2978 RMK AO2
KCWA 250855Z AUTO 36004KT 7SM OVC007 00/00 A2978 RMK AO2
KCWA 250835Z AUTO 36005KT 5SM -SN OVC007 00/00 A2979 RMK AO2
KCWA 250815Z AUTO 36005KT 5SM -SN OVC007 00/00 A2979 RMK AO2
KCWA 250755Z AUTO 34006KT 7SM BKN007 OVC012 00/00 A2979 RMK AO2
KCWA 250735Z AUTO 34006KT 7SM BKN005 OVC009 00/00 A2979 RMK AO2
KCWA 250715Z AUTO 35005KT 7SM BKN005 OVC008 00/00 A2980 RMK AO2
KCWA 250655Z AUTO 34007KT 7SM -SN OVC005 00/00 A2980 RMK AO2
KCWA 250635Z AUTO 36006KT 3SM -SN OVC005 00/00 A2981 RMK AO2
KCWA 250615Z AUTO 36005KT 2SM -SN OVC005 00/00 A2982 RMK AO2
KCWA 250555Z AUTO 35005KT 3SM -SN OVC003 00/00 A2982 RMK AO2
KCWA 250535Z AUTO 34006KT 3SM -SN OVC003 00/00 A2982 RMK AO2
KCWA 250515Z AUTO 34007KT 3SM -SN BKN005 OVC008 00/00 A2982 RMK AO2
KCWA 250455Z AUTO 35006KT 1 3/4SM -SN OVC005 00/00 A2983 RMK AO2
KCWA 250435Z AUTO 34006KT 2 1/2SM -SN OVC007 00/00 A2983 RMK AO2
KCWA 250415Z AUTO 36006KT 4SM -SN BKN009 OVC013 00/00 A2983 RMK AO2
KCWA 250355Z AUTO 01006KT 5SM -SN BKN009 OVC013 00/00 A2983 RMK AO2
KCWA 250353Z 01006KT 5SM -SN OVC009 00/M01 A2983
KCWA 250247Z 36006KT 5SM BR OVC006 00/M01 A2984
KCWA 250150Z 01006KT 2SM -SN OVC004 00/00 A2986
KCWA 250050Z 01006KT 2SM -SN OVC004 00/M01 A2988
KCWA 242349Z 01005KT 3SM -SN OVC006 00/00 A2987
KCWA 242247Z 01005KT 5SM -SN OVC006 01/00 A2988